createdAt,value
2023-06-15T00:01:39.429Z,93.76
2023-06-15T00:04:28.186Z,93.98
2023-06-15T00:07:16.054Z,95.35
2023-06-15T00:10:04.100Z,94.47
2023-06-15T00:12:51.960Z,94.40
2023-06-15T00:15:41.519Z,93.66
2023-06-15T00:18:29.543Z,90.81
2023-06-15T00:21:17.685Z,90.77
2023-06-15T00:24:06.126Z,92.79
2023-06-15T00:26:53.958Z,92.50
2023-06-15T00:29:41.705Z,95.09
2023-06-15T00:32:30.908Z,96.77
2023-06-15T00:35:19.294Z,95.70
2023-06-15T00:38:07.225Z,97.01
2023-06-15T00:40:55.205Z,98.11
2023-06-15T00:43:43.073Z,98.78
2023-06-15T00:46:31.156Z,98.70
2023-06-15T00:49:22.970Z,98.25
2023-06-15T00:52:10.783Z,98.72
2023-06-15T00:54:58.509Z,99.14
2023-06-15T00:57:50.876Z,99.36
2023-06-15T01:00:39.221Z,99.93
2023-06-15T01:03:27.115Z,100.00
2023-06-15T01:06:20.876Z,100.00
2023-06-15T01:09:08.778Z,99.58
2023-06-15T01:11:59.805Z,98.71
2023-06-15T01:14:47.750Z,99.43
2023-06-15T01:17:36.752Z,100.00
2023-06-15T01:20:29.433Z,99.57
2023-06-15T01:23:30.001Z,94.74
2023-06-15T01:26:22.139Z,97.18
2023-06-15T01:29:12.036Z,96.69
2023-06-15T01:32:00.253Z,94.03
2023-06-15T01:34:48.162Z,95.88
2023-06-15T01:37:35.951Z,93.52
2023-06-15T01:40:24.188Z,98.37
2023-06-15T01:43:15.547Z,99.24
2023-06-15T01:46:04.971Z,100.00
2023-06-15T01:48:54.437Z,100.00
2023-06-15T01:51:43.007Z,98.71
2023-06-15T01:54:31.233Z,98.04
2023-06-15T01:57:21.888Z,100.00
2023-06-15T02:00:13.806Z,100.00
2023-06-15T02:03:02.944Z,100.00
2023-06-15T02:05:50.958Z,100.00
2023-06-15T02:08:38.950Z,100.00
2023-06-15T02:11:27.250Z,100.00
2023-06-15T02:14:18.931Z,100.00
2023-06-15T02:17:08.463Z,98.40
2023-06-15T02:19:56.268Z,100.00
2023-06-15T02:22:44.270Z,99.24
2023-06-15T02:25:32.748Z,99.83
2023-06-15T02:28:20.804Z,100.00
2023-06-15T02:31:08.604Z,100.00
2023-06-15T02:33:58.038Z,100.00
2023-06-15T02:36:47.445Z,100.00
2023-06-15T02:39:36.002Z,100.00
2023-06-15T02:42:23.821Z,99.30
2023-06-15T02:45:12.143Z,95.81
2023-06-15T02:48:00.190Z,100.00
2023-06-15T02:50:49.411Z,100.00
2023-06-15T02:53:37.529Z,100.00
2023-06-15T02:56:25.088Z,100.00
2023-06-15T02:59:13.052Z,100.00
2023-06-15T03:02:01.563Z,99.19
2023-06-15T03:04:51.628Z,96.12
2023-06-15T03:07:41.784Z,98.10
2023-06-15T03:10:29.689Z,97.74
2023-06-15T03:13:18.194Z,100.00
2023-06-15T03:16:08.273Z,99.28
2023-06-15T03:18:56.117Z,97.91
2023-06-15T03:21:43.947Z,97.31
2023-06-15T03:24:34.183Z,97.02
2023-06-15T03:27:22.041Z,97.51
2023-06-15T03:30:11.953Z,96.90
2023-06-15T03:33:01.140Z,99.60
2023-06-15T03:35:50.683Z,100.00
2023-06-15T03:38:38.398Z,100.00
2023-06-15T03:41:28.585Z,100.00
2023-06-15T03:44:16.699Z,100.00
2023-06-15T03:47:04.928Z,100.00
2023-06-15T03:49:53.039Z,100.00
2023-06-15T03:52:40.882Z,100.00
2023-06-15T03:55:28.934Z,100.00
2023-06-15T03:58:18.830Z,99.44
2023-06-15T04:01:07.156Z,100.00
2023-06-15T04:03:55.966Z,99.14
2023-06-15T04:06:47.530Z,100.00
2023-06-15T04:09:35.843Z,100.00
2023-06-15T04:12:23.839Z,99.37
2023-06-15T04:15:13.412Z,98.99
2023-06-15T04:18:02.254Z,97.54
2023-06-15T04:20:50.100Z,95.89
2023-06-15T04:23:37.925Z,96.96
2023-06-15T04:26:25.798Z,95.51
2023-06-15T04:29:15.557Z,97.02
2023-06-15T04:32:06.342Z,97.78
2023-06-15T04:34:55.824Z,98.55
2023-06-15T04:37:43.550Z,100.00
2023-06-15T04:40:31.565Z,96.86
2023-06-15T04:43:19.987Z,98.73
2023-06-15T04:46:07.936Z,99.56
2023-06-15T04:48:57.571Z,100.00
2023-06-15T04:51:45.562Z,98.74
2023-06-15T04:54:33.300Z,97.47
2023-06-15T04:57:21.101Z,98.15
2023-06-15T05:00:11.315Z,99.52
2023-06-15T05:02:59.345Z,98.52
2023-06-15T05:05:48.722Z,99.25
2023-06-15T05:08:36.765Z,95.82
2023-06-15T05:11:24.742Z,93.57
2023-06-15T05:14:12.513Z,95.96
2023-06-15T05:17:04.459Z,95.38
2023-06-15T05:19:52.288Z,96.38
2023-06-15T05:22:41.478Z,97.00
2023-06-15T05:25:29.730Z,94.09
2023-06-15T05:28:18.661Z,95.02
2023-06-15T05:31:09.786Z,96.06
2023-06-15T05:33:57.564Z,97.24
2023-06-15T05:36:55.082Z,98.00
2023-06-15T05:39:46.832Z,96.75
2023-06-15T05:42:34.581Z,94.91
2023-06-15T05:45:23.005Z,97.78
2023-06-15T05:48:12.218Z,92.83
2023-06-15T05:50:59.964Z,94.03
2023-06-15T05:53:47.994Z,94.22
2023-06-15T05:56:37.179Z,95.45
2023-06-15T05:59:33.233Z,95.23
2023-06-15T06:02:22.014Z,90.81
2023-06-15T06:05:10.119Z,91.68
2023-06-15T06:07:58.059Z,93.09
2023-06-15T06:10:46.080Z,93.94
2023-06-15T06:13:35.884Z,92.12
2023-06-15T06:16:23.758Z,90.66
2023-06-15T06:19:11.826Z,87.42
2023-06-15T06:21:59.693Z,87.95
2023-06-15T06:24:47.540Z,86.58
2023-06-15T06:27:36.242Z,86.30
2023-06-15T06:30:25.514Z,86.87
2023-06-15T06:33:13.372Z,87.83
2023-06-15T06:36:01.438Z,86.97
2023-06-15T06:39:01.116Z,85.95
2023-06-15T06:41:50.311Z,85.00
2023-06-15T06:44:38.171Z,86.93
2023-06-15T06:47:27.320Z,85.52
2023-06-15T06:50:15.126Z,84.42
2023-06-15T06:53:03.074Z,84.94
2023-06-15T06:55:50.862Z,84.06
2023-06-15T06:58:38.862Z,83.71
2023-06-15T07:01:26.928Z,83.73
2023-06-15T07:04:16.367Z,83.56
2023-06-15T07:07:04.244Z,81.84
2023-06-15T07:09:52.094Z,81.81
2023-06-15T07:12:40.108Z,81.01
2023-06-15T07:15:28.893Z,79.82
2023-06-15T07:18:17.547Z,79.08
2023-06-15T07:21:06.700Z,79.42
2023-06-15T07:23:54.857Z,79.18
2023-06-15T07:26:42.802Z,78.78
2023-06-15T07:29:30.816Z,78.54
2023-06-15T07:32:18.724Z,77.82
2023-06-15T07:35:07.027Z,77.26
2023-06-15T07:37:56.260Z,74.88
2023-06-15T07:40:44.428Z,74.99
2023-06-15T07:43:32.361Z,73.64
2023-06-15T07:46:20.182Z,74.10
2023-06-15T07:49:08.584Z,72.36
2023-06-15T07:52:05.038Z,72.56
2023-06-15T07:54:59.680Z,72.28
2023-06-15T07:57:47.697Z,72.99
2023-06-15T08:00:35.533Z,73.25
2023-06-15T08:03:23.544Z,73.83
2023-06-15T08:06:12.365Z,73.95
2023-06-15T08:09:00.851Z,73.13
2023-06-15T08:11:51.544Z,73.20
2023-06-15T08:14:39.347Z,73.18
2023-06-15T08:17:28.141Z,72.21
2023-06-15T08:20:16.969Z,72.32
2023-06-15T08:23:05.256Z,71.60
2023-06-15T08:25:54.128Z,71.87
2023-06-15T08:28:53.515Z,71.52
2023-06-15T08:31:44.024Z,72.13
2023-06-15T08:34:32.024Z,73.10
2023-06-15T08:37:20.166Z,71.13
2023-06-15T08:40:09.527Z,70.38
2023-06-15T08:42:58.892Z,69.36
2023-06-15T08:45:50.973Z,69.25
2023-06-15T08:48:40.762Z,65.59
2023-06-15T08:51:28.863Z,65.58
2023-06-15T08:54:19.660Z,65.54
2023-06-15T08:57:07.674Z,63.95
2023-06-15T08:59:57.318Z,64.98
2023-06-15T09:02:47.993Z,65.80
2023-06-15T09:05:36.119Z,66.12
2023-06-15T09:08:24.277Z,61.94
2023-06-15T09:11:12.205Z,64.82
2023-06-15T09:14:00.240Z,61.69
2023-06-15T09:16:51.101Z,64.74
2023-06-15T09:19:40.433Z,63.65
2023-06-15T09:22:30.164Z,64.94
2023-06-15T09:25:20.499Z,62.98
2023-06-15T09:28:09.468Z,63.87
2023-06-15T09:30:57.921Z,63.29
2023-06-15T09:33:45.744Z,62.74
2023-06-15T09:36:41.939Z,63.62
2023-06-15T09:39:30.118Z,64.08
2023-06-15T09:42:17.988Z,64.54
2023-06-15T09:45:08.405Z,63.63
2023-06-15T09:47:58.066Z,64.32
2023-06-15T09:50:50.520Z,64.94
2023-06-15T09:53:41.320Z,63.55
2023-06-15T09:56:31.895Z,64.95
2023-06-15T09:59:21.370Z,65.18
2023-06-15T10:02:13.498Z,65.71
2023-06-15T10:05:01.880Z,64.27
2023-06-15T10:07:51.224Z,61.60
2023-06-15T10:10:47.522Z,64.52
2023-06-15T10:13:41.976Z,65.18
2023-06-15T10:16:31.870Z,62.12
2023-06-15T10:19:23.644Z,62.39
2023-06-15T10:22:17.030Z,63.13
2023-06-15T10:25:06.594Z,64.33
2023-06-15T10:27:56.526Z,64.56
2023-06-15T10:30:49.609Z,64.69
2023-06-15T10:33:43.076Z,64.39
2023-06-15T10:36:32.530Z,63.73
2023-06-15T10:39:27.201Z,62.69
2023-06-15T10:42:15.562Z,62.13
2023-06-15T10:45:28.417Z,62.48
2023-06-15T10:48:24.020Z,61.79
2023-06-15T10:51:16.280Z,61.84
2023-06-15T10:54:05.363Z,60.63
2023-06-15T10:56:54.912Z,59.17
2023-06-15T10:59:44.323Z,60.39
2023-06-15T11:03:00.274Z,60.29
2023-06-15T11:05:48.299Z,60.06
2023-06-15T11:08:50.597Z,59.25
2023-06-15T11:11:40.432Z,60.06
2023-06-15T11:14:28.675Z,59.68
2023-06-15T11:17:22.842Z,61.72
2023-06-15T11:20:52.567Z,63.39
2023-06-15T11:23:46.895Z,62.04
2023-06-15T11:26:35.379Z,63.47
2023-06-15T11:29:27.107Z,58.83
2023-06-15T11:32:15.156Z,60.28
2023-06-15T11:35:05.058Z,60.55
2023-06-15T11:37:52.919Z,58.33
2023-06-15T11:40:42.240Z,58.98
2023-06-15T11:43:34.765Z,59.05
2023-06-15T11:46:24.006Z,60.75
2023-06-15T11:49:13.031Z,62.13
2023-06-15T11:52:00.928Z,58.82
2023-06-15T11:54:53.300Z,61.23
2023-06-15T11:57:45.689Z,58.31
2023-06-15T12:00:34.072Z,58.21
2023-06-15T12:03:22.849Z,59.37
2023-06-15T12:06:10.810Z,58.46
2023-06-15T12:08:59.008Z,60.60
2023-06-15T12:11:47.194Z,60.21
2023-06-15T12:14:36.604Z,64.00
2023-06-15T12:17:29.288Z,63.13
2023-06-15T12:20:17.341Z,62.82
2023-06-15T12:23:06.114Z,65.58
2023-06-15T12:25:56.343Z,65.39
2023-06-15T12:28:44.392Z,62.27
2023-06-15T12:31:36.850Z,60.68
2023-06-15T12:34:26.477Z,62.73
2023-06-15T12:37:14.586Z,60.92
2023-06-15T12:40:02.445Z,61.42
2023-06-15T12:42:58.777Z,61.17
2023-06-15T12:45:47.583Z,64.71
2023-06-15T12:48:36.800Z,64.13
2023-06-15T12:51:24.724Z,60.75
2023-06-15T12:54:12.569Z,61.09
2023-06-15T12:57:00.507Z,61.22
2023-06-15T12:59:48.458Z,61.39
2023-06-15T13:02:36.573Z,62.56
2023-06-15T13:05:25.939Z,65.54
2023-06-15T13:08:15.763Z,64.43
2023-06-15T13:11:03.555Z,66.02
2023-06-15T13:13:51.347Z,63.12
2023-06-15T13:16:39.141Z,62.71
2023-06-15T13:19:26.840Z,62.97
2023-06-15T13:22:16.021Z,62.27
2023-06-15T13:25:05.848Z,62.24
2023-06-15T13:27:53.935Z,63.59
2023-06-15T13:30:41.923Z,63.58
2023-06-15T13:33:29.980Z,64.21
2023-06-15T13:36:17.701Z,63.31
2023-06-15T13:39:07.116Z,63.23
2023-06-15T13:41:55.514Z,65.32
2023-06-15T13:44:43.276Z,61.78
2023-06-15T13:47:31.357Z,62.00
2023-06-15T13:50:21.105Z,64.55
2023-06-15T13:53:09.351Z,62.79
2023-06-15T13:55:58.621Z,62.75
2023-06-15T13:58:46.602Z,64.49
2023-06-15T14:01:34.484Z,60.10
2023-06-15T14:04:22.592Z,60.85
2023-06-15T14:07:10.550Z,64.57
2023-06-15T14:09:58.299Z,60.88
2023-06-15T14:12:47.370Z,60.58
2023-06-15T14:15:35.482Z,63.91
2023-06-15T14:18:24.528Z,63.47
2023-06-15T14:21:12.343Z,65.64
2023-06-15T14:24:00.396Z,64.07
2023-06-15T14:26:49.174Z,61.71
2023-06-15T14:29:38.579Z,63.26
2023-06-15T14:32:26.748Z,62.58
2023-06-15T14:35:14.854Z,65.42
2023-06-15T14:38:03.393Z,62.25
2023-06-15T14:40:51.287Z,62.99
2023-06-15T14:43:39.336Z,58.75
2023-06-15T14:46:28.503Z,63.38
2023-06-15T14:49:16.369Z,62.60
2023-06-15T14:52:04.690Z,59.70
2023-06-15T14:54:52.705Z,59.55
2023-06-15T14:57:40.846Z,59.56
2023-06-15T15:00:28.869Z,61.61
2023-06-15T15:03:18.098Z,58.63
2023-06-15T15:06:08.390Z,59.13
2023-06-15T15:08:56.137Z,58.97
2023-06-15T15:11:44.985Z,57.52
2023-06-15T15:14:32.745Z,63.78
2023-06-15T15:17:20.640Z,61.34
2023-06-15T15:20:11.050Z,57.82
2023-06-15T15:22:59.070Z,58.44
2023-06-15T15:25:47.540Z,59.41
2023-06-15T15:28:35.755Z,62.81
2023-06-15T15:31:23.726Z,59.85
2023-06-15T15:34:11.582Z,61.34
2023-06-15T15:37:01.009Z,60.92
2023-06-15T15:39:48.840Z,62.05
2023-06-15T15:42:36.604Z,63.79
2023-06-15T15:45:24.417Z,62.45
2023-06-15T15:48:12.347Z,61.52
2023-06-15T15:51:00.236Z,59.80
2023-06-15T15:53:49.389Z,59.75
2023-06-15T15:56:37.343Z,59.84
2023-06-15T15:59:25.164Z,60.87
2023-06-15T16:02:13.555Z,59.65
2023-06-15T16:05:02.235Z,64.57
2023-06-15T16:07:50.241Z,62.99
2023-06-15T16:10:39.458Z,61.21
2023-06-15T16:13:27.705Z,61.86
2023-06-15T16:16:28.204Z,61.96
2023-06-15T16:19:16.727Z,62.92
2023-06-15T16:22:04.625Z,62.75
2023-06-15T16:24:52.447Z,62.57
2023-06-15T16:27:41.793Z,61.96
2023-06-15T16:30:29.660Z,65.00
2023-06-15T16:33:17.612Z,62.99
2023-06-15T16:36:06.109Z,63.36
2023-06-15T16:38:53.839Z,64.95
2023-06-15T16:41:41.866Z,62.81
2023-06-15T16:44:30.983Z,62.52
2023-06-15T16:47:19.170Z,63.32
2023-06-15T16:50:07.868Z,65.67
2023-06-15T16:52:55.865Z,63.18
2023-06-15T16:55:43.672Z,63.72
2023-06-15T16:58:31.592Z,63.87
2023-06-15T17:01:20.978Z,64.37
2023-06-15T17:04:09.360Z,63.78
2023-06-15T17:06:57.388Z,64.54
2023-06-15T17:09:47.145Z,64.84
2023-06-15T17:12:35.265Z,66.32
2023-06-15T17:15:23.234Z,66.36
2023-06-15T17:18:13.498Z,64.92
2023-06-15T17:21:01.707Z,66.48
2023-06-15T17:23:51.044Z,67.86
2023-06-15T17:26:41.322Z,66.93
2023-06-15T17:29:29.136Z,67.14
2023-06-15T17:32:17.079Z,69.32
2023-06-15T17:35:07.200Z,69.97
2023-06-15T17:37:55.213Z,69.17
2023-06-15T17:40:43.046Z,69.86
2023-06-15T17:43:31.381Z,71.48
2023-06-15T17:46:19.323Z,73.44
2023-06-15T17:49:07.891Z,74.25
2023-06-15T17:51:57.266Z,74.07
2023-06-15T17:54:45.087Z,73.35
2023-06-15T17:57:33.085Z,74.85
2023-06-15T18:00:21.276Z,75.31
2023-06-15T18:03:09.388Z,75.96
2023-06-15T18:05:57.653Z,74.92
2023-06-15T18:08:47.216Z,74.96
2023-06-15T18:11:34.983Z,74.30
2023-06-15T18:14:24.661Z,75.26
2023-06-15T18:17:12.511Z,75.25
2023-06-15T18:20:00.260Z,76.54
2023-06-15T18:22:47.942Z,76.67
2023-06-15T18:25:37.645Z,76.02
2023-06-15T18:28:25.671Z,75.05
2023-06-15T18:31:13.541Z,75.62
2023-06-15T18:34:03.874Z,76.00
2023-06-15T18:36:51.660Z,77.76
2023-06-15T18:39:39.644Z,78.41
2023-06-15T18:42:28.814Z,77.50
2023-06-15T18:45:19.251Z,78.21
2023-06-15T18:48:07.498Z,81.31
2023-06-15T18:50:55.493Z,82.61
2023-06-15T18:53:43.440Z,82.96
2023-06-15T18:56:32.688Z,83.10
2023-06-15T18:59:22.131Z,83.25
2023-06-15T19:02:10.055Z,82.32
2023-06-15T19:04:58.174Z,81.14
2023-06-15T19:07:47.061Z,81.35
2023-06-15T19:10:37.187Z,81.88
2023-06-15T19:13:25.347Z,82.66
2023-06-15T19:16:14.625Z,81.70
2023-06-15T19:19:02.576Z,81.97
2023-06-15T19:21:50.379Z,81.30
2023-06-15T19:24:39.239Z,80.47
2023-06-15T19:27:27.178Z,80.66
2023-06-15T19:30:16.438Z,80.58
2023-06-15T19:33:09.735Z,81.44
2023-06-15T19:35:57.724Z,80.23
2023-06-15T19:38:57.296Z,82.21
2023-06-15T19:41:51.565Z,82.27
2023-06-15T19:44:39.569Z,79.84
2023-06-15T19:47:27.549Z,81.13
2023-06-15T19:50:17.495Z,80.95
2023-06-15T19:53:05.588Z,79.77
2023-06-15T19:55:57.345Z,78.11
2023-06-15T19:58:45.250Z,77.68
2023-06-15T20:01:33.135Z,79.26
2023-06-15T20:04:20.918Z,80.18
2023-06-15T20:07:12.035Z,80.62
2023-06-15T20:09:59.969Z,81.60
2023-06-15T20:12:48.124Z,81.23
2023-06-15T20:15:35.943Z,80.33
2023-06-15T20:18:23.919Z,81.21
2023-06-15T20:21:11.592Z,81.39
2023-06-15T20:24:00.898Z,79.10
2023-06-15T20:26:48.785Z,78.50
2023-06-15T20:29:39.246Z,78.42
2023-06-15T20:32:28.826Z,77.54
2023-06-15T20:35:16.698Z,77.57
2023-06-15T20:38:04.672Z,76.54
2023-06-15T20:40:54.084Z,79.00
2023-06-15T20:43:42.552Z,76.70
2023-06-15T20:46:31.793Z,77.97
2023-06-15T20:49:19.590Z,78.67
2023-06-15T20:52:07.886Z,76.74
2023-06-15T20:54:55.619Z,77.82
2023-06-15T20:57:44.788Z,75.88
2023-06-15T21:00:34.408Z,75.06
2023-06-15T21:03:22.659Z,74.47
2023-06-15T21:06:12.115Z,75.83
2023-06-15T21:09:00.703Z,76.99
2023-06-15T21:11:48.730Z,73.87
2023-06-15T21:14:39.706Z,73.59
2023-06-15T21:17:27.575Z,75.92
2023-06-15T21:20:15.969Z,73.86
2023-06-15T21:23:03.874Z,74.47
2023-06-15T21:25:51.699Z,70.27
2023-06-15T21:28:39.697Z,72.06
2023-06-15T21:31:28.949Z,71.88
2023-06-15T21:34:16.913Z,71.61
2023-06-15T21:37:06.621Z,70.94
2023-06-15T21:39:54.518Z,74.91
2023-06-15T21:42:42.262Z,73.25
2023-06-15T21:45:29.985Z,69.82
2023-06-15T21:48:19.168Z,72.33
2023-06-15T21:51:06.918Z,70.81
2023-06-15T21:53:54.805Z,73.33
2023-06-15T21:56:42.846Z,74.24
2023-06-15T21:59:31.244Z,72.44
2023-06-15T22:02:19.292Z,74.12
2023-06-15T22:05:09.834Z,73.72
2023-06-15T22:07:57.754Z,72.17
2023-06-15T22:10:45.766Z,72.46
2023-06-15T22:13:35.732Z,72.53
2023-06-15T22:16:23.807Z,71.30
2023-06-15T22:19:11.654Z,71.98
2023-06-15T22:22:01.720Z,73.99
2023-06-15T22:24:50.072Z,72.58
2023-06-15T22:27:37.888Z,75.90
2023-06-15T22:30:25.875Z,73.19
2023-06-15T22:33:13.862Z,74.32
2023-06-15T22:36:01.860Z,74.78
2023-06-15T22:38:51.493Z,74.07
2023-06-15T22:41:39.806Z,75.36
2023-06-15T22:44:28.057Z,78.79
2023-06-15T22:47:18.973Z,82.97
2023-06-15T22:50:07.565Z,86.32
2023-06-15T22:52:59.505Z,90.75
2023-06-15T22:58:36.710Z,97.86
2023-06-15T23:01:25.278Z,99.55
2023-06-15T23:04:13.358Z,99.59
2023-06-15T23:07:04.480Z,98.18
2023-06-15T23:09:53.048Z,100.00
2023-06-15T23:12:51.762Z,100.00
2023-06-15T23:15:39.837Z,99.11
2023-06-15T23:18:28.226Z,96.98
2023-06-15T23:21:17.216Z,99.23
2023-06-15T23:24:06.664Z,100.00
2023-06-15T23:26:57.078Z,97.38
2023-06-15T23:29:49.593Z,100.00
2023-06-15T23:32:37.472Z,98.93
2023-06-15T23:35:25.280Z,98.59
2023-06-15T23:38:13.269Z,95.54
2023-06-15T23:41:01.399Z,94.33
2023-06-15T23:43:49.590Z,97.32
2023-06-15T23:46:38.922Z,95.58
2023-06-15T23:49:27.344Z,100.00
2023-06-15T23:52:15.261Z,100.00
2023-06-15T23:55:04.273Z,100.00
2023-06-15T23:57:52.173Z,100.00
